Time;durP1;ratioP1;P1;durP2;ratioP2;P2;SDS_P1;SDS_P2;PMS_P1;PMS_P2;Temp;Humidity;BMP_temperature;BMP_pressure;BME280_temperature;BME280_humidity;BME280_pressure;Samples;Min_cycle;Max_cycle;Signal;HPM_P1;HPM_P2
2022/11/04 00:00:01;;;;;;;898.83;836.75;;;;;;;11.38;65.29;100014.97;683840;28;46284;-63
2022/11/04 00:00:24;;;;;;;903.65;841.40;;;;;;;11.37;65.27;100024.13;684633;28;22490;-63
2022/11/04 00:00:46;;;;;;;900.90;838.78;;;;;;;11.36;65.50;100020.59;682173;28;90857;-63
2022/11/04 00:01:07;;;;;;;924.45;861.65;;;;;;;11.36;65.26;100017.03;684693;28;21534;-63
2022/11/04 00:01:33;;;;;;;915.35;852.78;;;;;;;11.35;65.26;100018.09;690634;28;37935;-63
2022/11/04 00:01:55;;;;;;;899.72;837.63;;;;;;;11.36;65.24;100023.28;694178;28;67609;-63
2022/11/04 00:02:16;;;;;;;916.08;853.53;;;;;;;11.37;65.08;100016.00;694978;28;44385;-63
2022/11/04 00:02:38;;;;;;;928.88;865.85;;;;;;;11.38;65.28;100022.25;695289;28;22415;-62
2022/11/04 00:03:01;;;;;;;925.50;862.47;;;;;;;11.36;65.08;100014.31;694326;28;46456;-63
2022/11/04 00:03:22;;;;;;;897.10;834.97;;;;;;;11.36;65.03;100025.13;694626;28;45358;-63
2022/11/04 00:03:43;;;;;;;937.88;874.30;;;;;;;11.34;65.06;100017.22;694891;28;22364;-63
2022/11/04 00:04:04;;;;;;;948.83;884.95;;;;;;;11.35;65.57;100015.38;694927;28;22394;-62
2022/11/04 00:04:27;;;;;;;933.35;870.08;;;;;;;11.32;65.24;100021.19;695971;28;10064;-63
2022/11/04 00:04:48;;;;;;;921.45;858.58;;;;;;;11.34;65.56;100019.09;693936;28;69429;-63
2022/11/04 00:05:09;;;;;;;895.53;833.50;;;;;;;11.34;65.75;100021.81;695659;28;23743;-63
2022/11/04 00:05:31;;;;;;;909.90;847.50;;;;;;;11.34;65.58;100024.50;695922;28;21518;-63
2022/11/04 00:05:53;;;;;;;930.60;867.42;;;;;;;11.33;65.22;100018.28;697568;28;45199;-62
2022/11/04 00:06:14;;;;;;;938.33;875.03;;;;;;;11.34;65.26;100019.94;697019;28;44362;-63
2022/11/04 00:06:36;;;;;;;914.67;852.10;;;;;;;11.35;65.51;100020.78;698100;28;22225;-63
2022/11/04 00:06:58;;;;;;;891.25;829.13;;;;;;;11.34;65.28;100021.81;696974;28;44374;-62
2022/11/04 00:08:39;;;;;;;922.13;859.15;;;;;;;11.34;65.39;100016.41;688607;28;137603;-63
2022/11/04 00:09:00;;;;;;;917.38;854.60;;;;;;;11.34;65.27;100016.41;693030;28;23501;-63
2022/11/04 00:09:23;;;;;;;902.97;840.72;;;;;;;11.33;65.52;100018.28;693654;28;892;-63
2022/11/04 00:09:44;;;;;;;940.97;877.42;;;;;;;11.34;65.38;100019.09;690495;28;93211;-63
2022/11/04 00:10:08;;;;;;;946.67;883.05;;;;;;;11.33;65.35;100020.13;692968;28;22273;-63
2022/11/04 00:12:25;;;;;;;888.67;826.80;;;;;;;11.33;65.16;100010.16;693670;28;137675;-63
2022/11/04 00:12:47;;;;;;;898.85;836.70;;;;;;;11.34;65.20;100006.41;697493;28;46248;-63
2022/11/04 00:13:08;;;;;;;894.63;832.60;;;;;;;11.33;65.49;100012.88;698363;28;22405;-63
2022/11/04 00:13:33;;;;;;;900.67;838.42;;;;;;;11.33;65.08;100009.31;698050;28;15035;-63
2022/11/04 00:13:54;;;;;;;908.72;846.25;;;;;;;11.32;65.36;100011.19;697084;28;45075;-63
2022/11/04 00:14:17;;;;;;;901.40;839.15;;;;;;;11.33;65.12;100012.03;698322;28;22373;-63
2022/11/04 00:14:41;;;;;;;903.97;841.72;;;;;;;11.31;65.10;100014.09;695894;28;67605;-63
2022/11/04 00:17:21;;;;;;;916.80;853.88;;;;;;;11.29;65.22;100008.88;690923;28;137664;-64
2022/11/04 00:17:43;;;;;;;932.22;869.00;;;;;;;11.28;65.36;100009.09;691361;28;135991;-63
2022/11/04 00:18:06;;;;;;;933.13;869.97;;;;;;;11.28;65.33;100007.22;691925;28;44996;-63
2022/11/04 00:18:27;;;;;;;910.03;847.67;;;;;;;11.28;65.57;100007.22;692040;28;67456;-63
2022/11/04 00:18:49;;;;;;;898.75;836.67;;;;;;;11.29;65.45;100013.47;695947;28;4553;-63
2022/11/04 00:19:11;;;;;;;909.42;847.03;;;;;;;11.27;65.23;100005.56;695762;28;22479;-64
2022/11/04 00:28:54;;;;;;;904.25;841.72;;;;;;;11.29;65.54;99997.25;693317;28;157436;-64
2022/11/04 00:29:16;;;;;;;902.08;839.85;;;;;;;11.28;65.82;100001.81;697799;28;44330;-64
2022/11/04 00:29:37;;;;;;;890.35;828.42;;;;;;;11.28;65.72;99996.41;697452;28;44369;-64
2022/11/04 00:30:00;;;;;;;860.28;799.25;;;;;;;11.26;65.72;100001.19;694910;28;45323;-64
2022/11/04 00:30:22;;;;;;;891.85;829.90;;;;;;;11.26;65.63;100003.06;694733;28;46420;-65
2022/11/04 00:30:44;;;;;;;883.20;821.45;;;;;;;11.26;65.97;99994.94;694520;28;46271;-64
2022/11/04 00:33:47;;;;;;;878.10;816.42;;;;;;;11.25;65.50;99993.28;693866;28;137681;-64
2022/11/04 00:34:09;;;;;;;894.95;832.92;;;;;;;11.24;65.52;99992.44;695312;28;114784;-64
2022/11/04 00:34:31;;;;;;;895.55;833.58;;;;;;;11.22;65.41;99989.09;698275;28;22541;-64
2022/11/04 00:34:54;;;;;;;893.00;830.95;;;;;;;11.21;65.56;99990.13;694002;28;45232;-64
2022/11/04 00:35:16;;;;;;;908.20;845.60;;;;;;;11.20;65.71;99993.03;693714;28;67596;-64
2022/11/04 00:35:37;;;;;;;885.92;824.10;;;;;;;11.19;66.00;99992.22;693653;28;23495;-64
2022/11/04 00:36:01;;;;;;;869.22;807.92;;;;;;;11.18;65.58;99993.25;690988;28;115188;-64
2022/11/04 00:36:24;;;;;;;875.15;813.65;;;;;;;11.18;65.91;99994.06;691844;28;46326;-64
2022/11/04 00:36:45;;;;;;;889.50;827.60;;;;;;;11.17;65.88;99987.00;692047;28;46354;-63
2022/11/04 00:37:07;;;;;;;906.33;843.63;;;;;;;11.17;65.75;99995.13;690746;28;67493;-63
2022/11/04 00:37:30;;;;;;;907.72;845.22;;;;;;;11.17;65.59;99991.56;692864;28;22417;-64
2022/11/04 00:37:51;;;;;;;922.05;859.20;;;;;;;11.17;65.85;99995.13;691285;28;68100;-64
2022/11/04 00:38:13;;;;;;;928.72;865.65;;;;;;;11.16;65.54;99990.75;692730;28;22388;-63
2022/11/04 00:38:34;;;;;;;938.42;874.90;;;;;;;11.15;65.94;99997.16;691528;28;45214;-64
2022/11/04 00:38:56;;;;;;;910.00;847.47;;;;;;;11.14;65.60;99992.81;692882;28;22545;-64
2022/11/04 00:39:17;;;;;;;916.20;853.53;;;;;;;11.14;65.54;99984.72;692103;28;45230;-65
2022/11/04 00:39:38;;;;;;;931.83;868.58;;;;;;;11.14;65.72;99992.81;691059;28;21410;-63
2022/11/04 00:40:00;;;;;;;929.58;866.42;;;;;;;11.12;66.02;99989.44;692715;28;23369;-64
2022/11/04 00:40:22;;;;;;;914.40;851.78;;;;;;;11.11;65.86;99990.50;691130;28;67695;-63
2022/11/04 00:40:43;;;;;;;896.95;834.78;;;;;;;11.11;65.56;99995.91;692752;28;21525;-63
2022/11/04 00:41:24;;;;;;;913.33;850.72;;;;;;;11.11;65.75;99997.75;692715;28;22469;-63
2022/11/04 00:41:46;;;;;;;916.15;853.65;;;;;;;11.10;65.95;99990.72;690871;28;158968;-64
2022/11/04 00:42:08;;;;;;;904.40;842.20;;;;;;;11.09;66.21;99989.84;694124;28;69560;-63
2022/11/04 00:42:29;;;;;;;917.47;854.80;;;;;;;11.08;65.73;99990.91;695377;28;23436;-63
2022/11/04 00:42:50;;;;;;;921.85;858.97;;;;;;;11.09;65.91;99991.72;696413;28;22375;-64
2022/11/04 00:43:12;;;;;;;929.10;865.85;;;;;;;11.06;66.11;99987.53;698262;28;22355;-64
2022/11/04 00:43:33;;;;;;;909.47;846.92;;;;;;;11.07;66.13;99991.94;694295;28;44353;-63
2022/11/04 00:43:56;;;;;;;893.10;830.97;;;;;;;11.07;66.00;99988.41;694086;28;21533;-63
2022/11/04 00:44:17;;;;;;;923.90;860.80;;;;;;;11.06;65.79;99986.72;693765;28;70102;-63
2022/11/04 00:44:38;;;;;;;926.20;862.97;;;;;;;11.05;65.87;99991.31;696348;28;1002;-62
2022/11/04 00:45:00;;;;;;;911.72;849.10;;;;;;;11.06;66.20;99992.94;694863;28;44375;-63
2022/11/04 00:45:21;;;;;;;920.75;857.85;;;;;;;11.05;66.01;99987.75;694790;28;47577;-62
2022/11/04 00:45:43;;;;;;;897.72;835.55;;;;;;;11.05;65.79;99987.75;695639;28;22289;-62
2022/11/04 00:46:04;;;;;;;880.15;818.60;;;;;;;11.05;66.18;99990.44;695709;28;22450;-63
2022/11/04 00:46:26;;;;;;;889.70;827.85;;;;;;;11.04;66.16;99984.22;695552;28;22444;-63
2022/11/04 00:46:48;;;;;;;918.42;855.58;;;;;;;11.04;66.17;99986.09;694897;28;44497;-62
2022/11/04 00:47:09;;;;;;;945.95;882.03;;;;;;;11.05;66.22;99990.44;694264;28;46317;-63
2022/11/04 00:47:30;;;;;;;934.25;870.92;;;;;;;11.03;66.28;99987.94;695582;28;21564;-63
2022/11/04 00:47:52;;;;;;;911.03;848.47;;;;;;;11.03;65.93;99984.41;695515;28;22392;-63
2022/11/04 00:48:14;;;;;;;898.92;836.72;;;;;;;11.02;66.21;99989.00;695495;28;23422;-64
2022/11/04 00:48:39;;;;;;;922.78;859.70;;;;;;;11.02;66.26;99996.25;693766;28;60941;-63
2022/11/04 00:49:01;;;;;;;929.50;866.33;;;;;;;11.02;66.19;99988.13;694889;28;44381;-63
2022/11/04 00:49:22;;;;;;;925.00;862.05;;;;;;;11.01;66.18;99990.00;694738;28;46397;-63
2022/11/04 00:49:44;;;;;;;909.50;846.92;;;;;;;11.01;65.96;99995.41;695577;28;21547;-63
2022/11/04 00:50:07;;;;;;;901.67;839.40;;;;;;;11.00;66.36;100000.00;694757;28;46281;-64
2022/11/04 00:50:28;;;;;;;925.10;862.22;;;;;;;11.00;66.38;99999.16;694101;28;67459;-64
2022/11/04 00:50:49;;;;;;;924.85;861.85;;;;;;;10.99;66.33;99992.91;694925;28;21464;-63
2022/11/04 00:51:10;;;;;;;948.58;884.90;;;;;;;11.00;66.34;99993.75;692938;28;21553;-64
2022/11/04 00:51:32;;;;;;;935.97;872.65;;;;;;;10.99;66.30;99989.38;692902;28;23397;-64
2022/11/04 00:51:53;;;;;;;911.42;848.85;;;;;;;10.98;66.30;99995.81;691703;28;45032;-63
2022/11/04 00:52:15;;;;;;;926.03;863.08;;;;;;;10.98;66.14;99990.41;691963;28;46352;-63
2022/11/04 00:52:36;;;;;;;913.80;851.20;;;;;;;10.96;66.02;99993.31;693529;28;21551;-63
2022/11/04 00:52:58;;;;;;;912.63;849.97;;;;;;;10.95;65.89;99988.94;695390;28;21539;-63
2022/11/04 00:53:20;;;;;;;929.40;866.28;;;;;;;10.95;66.26;99994.34;694638;28;46394;-63
2022/11/04 00:53:41;;;;;;;910.25;847.65;;;;;;;10.95;65.95;99991.63;694002;28;46144;-63
2022/11/04 00:54:03;;;;;;;906.88;844.47;;;;;;;10.92;66.36;99989.31;694839;28;46306;-62
2022/11/04 00:54:24;;;;;;;906.95;844.60;;;;;;;10.94;66.49;99989.97;695736;28;13680;-63
2022/11/04 00:54:45;;;;;;;900.50;838.25;;;;;;;10.95;66.41;99996.22;695550;28;23477;-63
2022/11/04 00:55:08;;;;;;;899.72;837.40;;;;;;;10.92;66.38;99989.31;695290;28;21512;-63
2022/11/04 00:55:29;;;;;;;922.47;859.58;;;;;;;10.94;66.30;99999.94;693900;28;69686;-62
2022/11/04 00:55:50;;;;;;;924.55;861.47;;;;;;;10.92;66.32;99994.72;693798;28;46760;-61
2022/11/04 00:56:11;;;;;;;900.67;838.38;;;;;;;10.92;66.32;99994.72;695542;28;21543;-63
2022/11/04 00:56:36;;;;;;;928.17;865.03;;;;;;;10.90;66.04;99994.09;695412;28;22372;-63
2022/11/04 00:56:58;;;;;;;916.13;853.28;;;;;;;10.92;66.52;100000.13;689155;28;115983;-62
2022/11/04 00:57:19;;;;;;;921.95;858.88;;;;;;;10.91;66.11;99998.47;691005;28;69434;-63
2022/11/04 00:57:40;;;;;;;924.15;861.08;;;;;;;10.89;66.19;99992.41;692894;28;21563;-63
2022/11/04 00:58:01;;;;;;;908.50;846.13;;;;;;;10.91;66.43;99994.91;695577;28;21551;-63
2022/11/04 00:58:22;;;;;;;916.65;854.05;;;;;;;10.89;66.67;99995.13;695575;28;22463;-63
2022/11/04 00:58:45;;;;;;;912.42;849.88;;;;;;;10.89;66.43;99997.00;695276;28;22400;-63
2022/11/04 00:59:06;;;;;;;914.15;851.53;;;;;;;10.89;66.29;99995.13;694781;28;44390;-63
2022/11/04 00:59:27;;;;;;;916.00;853.22;;;;;;;10.88;66.52;99998.03;694875;28;46296;-63
2022/11/04 00:59:48;;;;;;;902.83;840.45;;;;;;;10.88;66.13;99995.31;695574;28;22441;-62
2022/11/04 01:00:12;;;;;;;908.25;845.67;;;;;;;10.88;66.34;99992.63;695569;28;23454;-63
2022/11/04 01:00:33;;;;;;;944.13;880.40;;;;;;;10.86;66.25;99992.00;693068;28;92293;-64
2022/11/04 01:00:54;;;;;;;941.17;877.55;;;;;;;10.85;66.25;99993.88;697503;28;23441;-61
2022/11/04 01:01:16;;;;;;;914.72;852.05;;;;;;;10.86;66.19;99990.13;698457;28;23669;-63
2022/11/04 01:01:37;;;;;;;908.20;845.75;;;;;;;10.84;66.46;99989.47;697479;28;46303;-63
2022/11/04 01:01:58;;;;;;;911.70;849.08;;;;;;;10.83;66.52;99990.53;698407;28;22396;-63
2022/11/04 01:02:21;;;;;;;928.73;865.63;;;;;;;10.81;66.32;99992.56;698476;28;21521;-63
2022/11/04 01:02:42;;;;;;;916.60;853.80;;;;;;;10.83;66.21;99993.25;696706;28;69388;-63
2022/11/04 01:03:03;;;;;;;927.25;864.15;;;;;;;10.81;66.18;99990.72;698365;28;21341;-62
2022/11/04 01:03:24;;;;;;;915.65;853.03;;;;;;;10.81;66.42;99987.19;697981;28;23504;-63
2022/11/04 01:03:47;;;;;;;917.05;854.33;;;;;;;10.81;66.68;99981.78;697961;28;22444;-63
2022/11/04 01:04:10;;;;;;;930.67;867.45;;;;;;;10.80;66.74;99991.75;695946;28;90320;-63
2022/11/04 01:04:31;;;;;;;909.72;847.17;;;;;;;10.80;66.27;99996.34;697589;28;44132;-63
2022/11/04 01:04:53;;;;;;;910.45;847.97;;;;;;;10.78;66.88;99987.56;698391;28;22434;-63
2022/11/04 01:05:14;;;;;;;931.90;867.70;;;;;;;10.78;66.61;99987.56;693360;28;44378;-63
2022/11/04 01:05:37;;;;;;;928.75;864.85;;;;;;;10.79;66.83;99991.94;694069;28;46424;-62
2022/11/04 01:05:58;;;;;;;903.10;840.88;;;;;;;10.79;66.79;99994.66;694301;28;46333;-63
2022/11/04 01:06:21;;;;;;;908.03;845.72;;;;;;;10.76;66.70;99993.16;695659;28;21553;-63
2022/11/04 01:06:42;;;;;;;916.33;853.70;;;;;;;10.77;66.87;99994.03;694355;28;45409;-63
2022/11/04 01:07:04;;;;;;;918.95;855.95;;;;;;;10.77;66.88;99991.31;691581;28;46339;-63
2022/11/04 01:07:26;;;;;;;896.75;834.53;;;;;;;10.77;67.03;99986.75;692758;28;22512;-63
2022/11/04 01:07:47;;;;;;;916.45;853.67;;;;;;;10.77;66.93;99991.31;691333;28;67458;-63
2022/11/04 01:08:08;;;;;;;928.30;865.10;;;;;;;10.77;66.68;99997.53;692764;28;22489;-63
2022/11/04 01:08:29;;;;;;;906.55;844.00;;;;;;;10.77;67.02;99992.16;692790;28;23444;-62
2022/11/04 01:08:54;;;;;;;901.50;839.17;;;;;;;10.77;66.96;99994.03;692949;28;44497;-63
2022/11/04 01:09:16;;;;;;;917.10;854.25;;;;;;;10.76;66.49;99989.63;692424;28;115976;-63
2022/11/04 01:09:37;;;;;;;905.50;842.97;;;;;;;10.75;66.85;99988.81;694707;28;44131;-63
2022/11/04 01:09:58;;;;;;;912.70;850.03;;;;;;;10.75;66.84;99985.25;695617;28;22393;-64
2022/11/04 01:10:19;;;;;;;905.25;842.78;;;;;;;10.75;67.10;99990.66;695287;28;23417;-62
2022/11/04 01:10:43;;;;;;;888.92;826.90;;;;;;;10.74;66.60;99987.13;698318;28;21439;-62
2022/11/04 01:11:07;;;;;;;913.75;851.10;;;;;;;10.74;66.85;99987.13;695958;28;92245;-63
2022/11/04 01:11:29;;;;;;;911.00;848.53;;;;;;;10.74;66.86;99989.84;696542;28;77740;-63
2022/11/04 01:11:50;;;;;;;889.60;827.58;;;;;;;10.73;67.18;99988.16;697321;28;44388;-63
2022/11/04 01:12:11;;;;;;;906.90;844.42;;;;;;;10.74;67.12;99983.59;698366;28;23489;-63
2022/11/04 01:12:33;;;;;;;916.65;853.88;;;;;;;10.73;67.10;99981.94;698119;28;21528;-63
2022/11/04 01:12:54;;;;;;;898.33;836.13;;;;;;;10.72;67.00;99986.50;697593;28;46128;-62
2022/11/04 01:13:15;;;;;;;903.70;841.42;;;;;;;10.72;66.96;99991.91;697852;28;24356;-62
2022/11/04 01:13:37;;;;;;;926.90;863.90;;;;;;;10.73;67.19;99984.63;697138;28;46469;-62
2022/11/04 01:13:59;;;;;;;910.28;847.83;;;;;;;10.72;66.67;99991.91;698323;28;23414;-62
2022/11/04 01:14:21;;;;;;;916.25;853.60;;;;;;;10.73;67.04;99980.06;697457;28;45249;-63
2022/11/04 01:14:42;;;;;;;913.15;850.53;;;;;;;10.73;67.10;99987.34;697481;28;46451;-63
2022/11/04 01:15:05;;;;;;;897.95;835.78;;;;;;;10.73;66.62;99985.47;694496;28;23537;-63
2022/11/04 01:15:26;;;;;;;916.33;853.55;;;;;;;10.74;66.76;99986.31;692305;28;44371;-63
2022/11/04 01:15:48;;;;;;;907.13;844.72;;;;;;;10.73;66.99;99981.94;692901;28;23490;-62
2022/11/04 01:16:10;;;;;;;911.40;848.83;;;;;;;10.74;66.92;99983.59;692114;28;46347;-63
2022/11/04 01:16:31;;;;;;;913.03;850.40;;;;;;;10.73;66.99;99985.47;691768;28;44270;-63
2022/11/04 01:16:52;;;;;;;884.60;822.78;;;;;;;10.74;67.15;99987.13;692815;28;23668;-64
2022/11/04 01:17:13;;;;;;;887.28;825.20;;;;;;;10.75;66.77;99979.84;694429;28;46335;-62
2022/11/04 01:17:35;;;;;;;905.97;843.47;;;;;;;10.74;66.82;99983.59;695566;28;23530;-63
2022/11/04 01:17:56;;;;;;;890.42;828.33;;;;;;;10.74;67.22;99976.34;694375;28;45272;-63
2022/11/04 01:18:18;;;;;;;880.00;818.30;;;;;;;10.74;66.99;99978.22;695456;28;22432;-63
2022/11/04 01:18:39;;;;;;;925.25;862.08;;;;;;;10.74;67.17;99976.34;694382;28;21551;-63
2022/11/04 01:19:02;;;;;;;940.17;876.47;;;;;;;10.76;67.11;99976.97;694695;28;44386;-63
2022/11/04 01:19:24;;;;;;;917.38;854.55;;;;;;;10.76;67.28;99973.44;693956;28;69376;-62
2022/11/04 01:19:45;;;;;;;919.28;856.38;;;;;;;10.75;67.10;99975.31;694638;28;46491;-63
2022/11/04 01:20:08;;;;;;;913.25;850.55;;;;;;;10.76;67.48;99974.25;695406;28;23119;-63
2022/11/04 01:20:31;;;;;;;900.10;837.75;;;;;;;10.76;67.63;99970.72;693927;28;69318;-62
2022/11/04 01:20:52;;;;;;;912.47;849.78;;;;;;;10.77;67.42;99970.53;694719;28;43635;-63
2022/11/04 01:21:14;;;;;;;903.30;841.05;;;;;;;10.78;67.06;99969.50;694874;28;45182;-62
2022/11/04 01:21:35;;;;;;;900.88;838.72;;;;;;;10.78;67.42;99966.81;694721;28;45283;-63
2022/11/04 01:21:57;;;;;;;901.72;839.47;;;;;;;10.80;66.97;99963.91;695428;28;22386;-62
2022/11/04 01:22:18;;;;;;;917.22;854.53;;;;;;;10.79;67.35;99963.06;694851;28;46317;-62
2022/11/04 01:22:40;;;;;;;914.67;851.83;;;;;;;10.79;67.04;99965.75;695224;28;22484;-63
2022/11/04 01:23:01;;;;;;;902.30;839.85;;;;;;;10.80;67.52;99958.50;694755;28;44361;-62
2022/11/04 01:23:23;;;;;;;912.55;849.95;;;;;;;10.81;67.40;99962.88;695661;28;22377;-63
2022/11/04 01:23:45;;;;;;;926.97;863.90;;;;;;;10.81;66.86;99960.16;695670;28;9193;-63
2022/11/04 01:24:06;;;;;;;907.50;845.08;;;;;;;10.80;67.14;99961.22;694736;28;46394;-62
2022/11/04 01:24:27;;;;;;;906.97;844.53;;;;;;;10.81;67.14;99962.88;695270;28;23450;-62
2022/11/04 01:24:49;;;;;;;916.83;853.95;;;;;;;10.81;67.00;99952.91;694611;28;45188;-62
2022/11/04 01:25:11;;;;;;;912.28;849.65;;;;;;;10.82;67.26;99949.16;694768;28;44521;-63
2022/11/04 01:25:32;;;;;;;918.95;856.17;;;;;;;10.78;67.17;99947.91;695594;28;22126;-62
2022/11/04 01:25:53;;;;;;;915.33;852.63;;;;;;;10.80;67.14;99951.25;695503;28;21521;-63
2022/11/04 01:26:15;;;;;;;901.38;839.00;;;;;;;10.81;66.78;99952.91;695540;28;21490;-63
2022/11/04 01:26:37;;;;;;;907.38;844.63;;;;;;;10.81;67.16;99961.03;693694;28;69426;-63
2022/11/04 01:26:58;;;;;;;895.45;832.95;;;;;;;10.80;67.17;99948.53;693670;28;46376;-62
2022/11/04 01:27:20;;;;;;;919.65;856.47;;;;;;;10.81;67.07;99952.91;695175;28;22201;-63
2022/11/04 01:27:41;;;;;;;924.88;861.78;;;;;;;10.80;67.00;99964.75;695250;28;22285;-63
2022/11/04 01:28:03;;;;;;;939.42;875.90;;;;;;;10.80;67.24;99958.50;695324;28;21504;-63
2022/11/04 01:28:24;;;;;;;894.20;832.15;;;;;;;10.80;67.30;99966.63;694342;28;46281;-63
2022/11/04 01:28:45;;;;;;;918.08;855.30;;;;;;;10.80;67.15;99961.22;694954;28;21529;-63
2022/11/04 01:29:06;;;;;;;929.30;866.20;;;;;;;10.79;67.43;99963.06;694635;28;46632;-62
2022/11/04 01:29:31;;;;;;;928.80;865.75;;;;;;;10.78;67.22;99961.41;695952;28;14431;-63
2022/11/04 01:29:52;;;;;;;908.13;845.63;;;;;;;10.79;67.16;99965.75;694600;28;45264;-63
2022/11/04 01:30:14;;;;;;;921.70;858.83;;;;;;;10.80;67.59;99966.63;695622;28;22415;-62
2022/11/04 01:30:37;;;;;;;933.40;870.10;;;;;;;10.80;67.25;99950.41;695321;28;23481;-62
2022/11/04 01:30:58;;;;;;;912.63;849.92;;;;;;;10.80;67.26;99963.91;693157;28;92250;-62
2022/11/04 01:31:22;;;;;;;909.80;847.17;;;;;;;10.81;67.38;99965.56;695564;28;21517;-62
2022/11/04 01:31:43;;;;;;;916.47;853.67;;;;;;;10.80;67.51;99962.03;692810;28;92071;-63
2022/11/04 01:32:04;;;;;;;898.67;836.42;;;;;;;10.78;67.65;99961.41;695601;28;22401;-62
2022/11/04 01:32:26;;;;;;;886.42;824.65;;;;;;;10.78;67.25;99958.72;695593;28;21531;-63
2022/11/04 01:32:49;;;;;;;908.65;846.03;;;;;;;10.80;67.44;99966.63;694612;28;46417;-62
2022/11/04 01:33:10;;;;;;;930.20;866.90;;;;;;;10.79;67.47;99965.75;693958;28;69310;-63
2022/11/04 01:33:31;;;;;;;935.63;872.20;;;;;;;10.78;67.55;99961.41;695058;28;23729;-63
2022/11/04 01:33:53;;;;;;;909.67;847.03;;;;;;;10.79;67.55;99946.84;695576;28;22384;-63
2022/11/04 01:34:16;;;;;;;910.72;848.13;;;;;;;10.78;67.82;99956.00;694806;28;46411;-63
2022/11/04 01:34:38;;;;;;;911.15;848.58;;;;;;;10.82;67.46;99951.03;693749;28;67571;-63
2022/11/04 01:34:59;;;;;;;919.60;856.75;;;;;;;10.81;67.54;99952.91;694822;28;46412;-63
2022/11/04 01:35:20;;;;;;;910.65;848.08;;;;;;;10.84;67.94;99950.84;695270;28;22422;-62
2022/11/04 01:35:43;;;;;;;896.17;833.97;;;;;;;10.83;67.79;99950.03;694655;28;44394;-65
2022/11/04 01:36:05;;;;;;;918.38;855.47;;;;;;;10.81;67.94;99947.50;694898;28;44372;-63
2022/11/04 01:36:27;;;;;;;920.15;857.22;;;;;;;10.84;67.97;99951.66;693984;28;66980;-63
2022/11/04 01:36:48;;;;;;;915.50;852.70;;;;;;;10.83;68.01;99944.63;695500;28;22191;-61
2022/11/04 01:37:10;;;;;;;927.92;864.72;;;;;;;10.81;67.79;99947.50;695042;28;22405;-63
2022/11/04 01:37:31;;;;;;;900.72;838.53;;;;;;;10.86;68.00;99954.16;694566;28;45231;-64
2022/11/04 01:37:52;;;;;;;915.13;852.42;;;;;;;10.86;67.92;99955.03;695594;28;22198;-63
2022/11/04 01:38:13;;;;;;;926.20;863.13;;;;;;;10.87;67.93;99948.56;694687;28;46312;-63
2022/11/04 01:38:36;;;;;;;924.95;861.90;;;;;;;10.88;67.68;99952.94;695163;28;21645;-63
2022/11/04 01:38:57;;;;;;;905.15;842.67;;;;;;;10.89;67.62;99948.38;694693;28;46274;-63
2022/11/04 01:39:18;;;;;;;895.78;833.70;;;;;;;10.88;67.57;99952.94;695637;28;21511;-62
2022/11/04 01:39:40;;;;;;;898.42;836.15;;;;;;;10.89;67.63;99962.69;695272;28;21584;-63
2022/11/04 01:40:01;;;;;;;929.55;866.30;;;;;;;10.88;67.57;99949.41;693503;28;69382;-63
2022/11/04 01:40:22;;;;;;;921.80;858.88;;;;;;;10.89;67.81;99954.59;695611;28;23715;-63
2022/11/04 01:40:44;;;;;;;911.42;848.72;;;;;;;10.90;67.37;99950.06;695394;28;22403;-62
2022/11/04 01:41:06;;;;;;;922.58;859.60;;;;;;;10.89;67.77;99949.19;695631;28;22388;-63
2022/11/04 01:41:30;;;;;;;900.15;837.88;;;;;;;10.90;67.53;99952.75;693509;28;912;-62
2022/11/04 01:41:51;;;;;;;923.85;860.75;;;;;;;10.90;67.57;99955.44;691086;28;67486;-63
2022/11/04 01:42:13;;;;;;;906.38;843.92;;;;;;;10.90;67.76;99958.97;692144;28;44438;-63
2022/11/04 01:42:35;;;;;;;916.03;853.25;;;;;;;10.90;67.34;99950.88;691767;28;44534;-65
2022/11/04 01:42:57;;;;;;;925.53;862.42;;;;;;;10.92;67.61;99956.06;692827;28;21517;-64
2022/11/04 01:43:20;;;;;;;914.90;852.17;;;;;;;10.93;67.25;99958.59;691893;28;46353;-63
2022/11/04 01:43:43;;;;;;;923.90;860.88;;;;;;;10.93;67.49;99955.06;689849;28;92274;-63
2022/11/04 01:44:39;;;;;;;917.97;855.10;;;;;;;10.89;67.68;99949.19;691228;28;69771;-63
2022/11/04 01:45:00;;;;;;;916.15;853.42;;;;;;;10.93;67.67;99958.59;690466;28;138379;-63
2022/11/04 01:45:21;;;;;;;919.30;856.50;;;;;;;10.93;67.46;99964.00;695549;28;23462;-63
2022/11/04 01:45:45;;;;;;;903.47;841.15;;;;;;;10.92;67.73;99954.19;695424;28;21348;-63
2022/11/04 01:46:07;;;;;;;906.88;844.47;;;;;;;10.94;67.35;99954.84;692718;28;92385;-63
2022/11/04 01:46:36;;;;;;;915.55;852.85;;;;;;;10.94;67.74;99954.00;694757;28;46442;-64
2022/11/04 01:46:57;;;;;;;930.80;867.33;;;;;;;10.94;67.51;99951.31;691102;28;137730;-63
2022/11/04 01:47:23;;;;;;;927.03;863.65;;;;;;;10.94;67.64;99956.69;695339;28;22561;-63
2022/11/04 01:47:48;;;;;;;913.88;851.10;;;;;;;10.94;67.40;99948.59;691917;28;114979;-63
2022/11/04 01:48:13;;;;;;;922.35;859.38;;;;;;;10.95;67.30;99950.28;692305;28;113558;-63
2022/11/04 01:48:34;;;;;;;933.35;870.05;;;;;;;10.94;67.24;99946.75;691638;28;114625;-63
2022/11/04 01:49:01;;;;;;;907.75;845.25;;;;;;;10.96;67.66;99950.09;694487;28;45239;-63
2022/11/04 01:49:25;;;;;;;923.58;860.42;;;;;;;10.96;67.49;99949.25;691003;28;137517;-63
2022/11/04 01:49:50;;;;;;;898.05;835.88;;;;;;;10.96;67.34;99952.78;691997;28;115076;-63
2022/11/04 01:50:15;;;;;;;922.55;859.55;;;;;;;10.95;67.17;99955.69;692891;28;90704;-64
2022/11/04 01:50:46;;;;;;;911.72;849.13;;;;;;;10.96;67.56;99954.66;692964;28;97821;-63
2022/11/04 01:51:07;;;;;;;919.92;857.10;;;;;;;10.95;67.68;99956.50;695427;28;23730;-63
2022/11/04 01:51:30;;;;;;;922.03;859.13;;;;;;;10.95;67.55;99958.38;695581;28;21484;-63
2022/11/04 01:51:54;;;;;;;899.92;837.65;;;;;;;10.96;67.73;99960.06;693812;28;67469;-63
2022/11/04 01:52:17;;;;;;;926.67;863.53;;;;;;;10.97;67.69;99964.41;693020;28;92638;-63
2022/11/04 01:52:43;;;;;;;908.30;845.65;;;;;;;10.95;67.29;99964.63;692541;28;92425;-63
2022/11/04 01:53:06;;;;;;;920.40;857.50;;;;;;;10.95;67.46;99961.91;691528;28;136384;-63
2022/11/04 01:53:30;;;;;;;913.47;850.88;;;;;;;10.92;67.28;99956.06;693858;28;70160;-63
2022/11/04 01:53:52;;;;;;;906.97;844.58;;;;;;;10.93;67.18;99964.00;692221;28;111857;-63
2022/11/04 01:54:13;;;;;;;905.28;842.92;;;;;;;10.94;67.45;99962.09;694675;28;45282;-63
2022/11/04 01:54:37;;;;;;;921.55;858.65;;;;;;;10.93;67.27;99961.28;695504;28;22174;-63
2022/11/04 01:55:06;;;;;;;918.67;855.92;;;;;;;10.92;67.44;99962.31;693940;28;61390;-63
2022/11/04 01:55:31;;;;;;;914.97;852.28;;;;;;;10.93;67.56;99963.16;688754;28;137269;-63
2022/11/04 01:55:55;;;;;;;921.90;858.90;;;;;;;10.92;67.53;99962.31;690889;28;114953;-63
2022/11/04 01:56:19;;;;;;;924.92;861.90;;;;;;;10.92;67.42;99966.88;693104;28;93023;-63
2022/11/04 01:56:41;;;;;;;920.42;857.45;;;;;;;10.92;67.47;99969.59;692815;28;92139;-63
2022/11/04 01:57:05;;;;;;;936.13;872.45;;;;;;;10.92;67.80;99961.47;691396;28;46405;-63
2022/11/04 01:57:30;;;;;;;915.05;852.20;;;;;;;10.87;67.44;99956.66;690774;28;92316;-63
2022/11/04 01:57:56;;;;;;;904.22;841.72;;;;;;;10.91;67.62;99971.47;691960;28;113914;-63
2022/11/04 01:58:20;;;;;;;916.70;854.00;;;;;;;10.90;67.65;99961.69;693853;28;136541;-63